Time;durP1;ratioP1;P1;durP2;ratioP2;P2;SDS_P1;SDS_P2;PMS_P1;PMS_P2;Temp;Humidity;BMP_temperature;BMP_pressure;BME280_temperature;BME280_humidity;BME280_pressure;Samples;Min_cycle;Max_cycle;Signal;HPM_P1;HPM_P2
2022/07/28 00:01:45;;;;;;;;;;;27.00;39.60;;;;;;5000164;28;19929;-66
2022/07/28 00:04:10;;;;;;;;;;;27.00;39.60;;;;;;4999494;28;19917;-65
2022/07/28 00:06:36;;;;;;;;;;;27.00;39.70;;;;;;4998422;28;19928;-69
2022/07/28 00:09:01;;;;;;;;;;;27.00;39.70;;;;;;5000408;28;20340;-69
2022/07/28 00:11:27;;;;;;;;;;;27.00;39.70;;;;;;4997590;28;20377;-68
2022/07/28 00:13:52;;;;;;;;;;;27.00;39.70;;;;;;4999839;28;19968;-67
2022/07/28 00:16:18;;;;;;;;;;;27.00;39.70;;;;;;4998325;28;19928;-67
2022/07/28 00:18:44;;;;;;;;;;;27.00;39.70;;;;;;4996900;28;19921;-68
2022/07/28 00:21:09;;;;;;;;;;;27.00;39.80;;;;;;5000944;28;19952;-65
2022/07/28 00:23:35;;;;;;;;;;;27.00;39.80;;;;;;4997936;28;19925;-65
2022/07/28 00:26:00;;;;;;;;;;;27.00;39.80;;;;;;5003582;28;19917;-66
2022/07/28 00:28:26;;;;;;;;;;;27.00;39.80;;;;;;4996240;28;20304;-66
2022/07/28 00:30:54;;;;;;;;;;;27.00;39.80;;;;;;4996384;28;20408;-65
2022/07/28 00:33:19;;;;;;;;;;;27.00;39.90;;;;;;4997179;28;20287;-67
2022/07/28 00:35:45;;;;;;;;;;;27.00;39.90;;;;;;4996490;28;20009;-65
2022/07/28 00:38:10;;;;;;;;;;;27.00;39.90;;;;;;4996241;28;19972;-67
2022/07/28 00:43:20;;;;;;;;;;;27.00;39.90;;;;;;5001216;28;19964;-68
2022/07/28 00:45:46;;;;;;;;;;;27.00;40.00;;;;;;5001750;28;19918;-68
2022/07/28 00:48:12;;;;;;;;;;;27.00;40.00;;;;;;5000106;28;19979;-69
2022/07/28 00:50:38;;;;;;;;;;;27.00;40.00;;;;;;5002400;28;19921;-65
2022/07/28 00:53:04;;;;;;;;;;;27.00;40.10;;;;;;5003140;28;20001;-67
2022/07/28 00:55:30;;;;;;;;;;;27.00;40.00;;;;;;5003043;28;20266;-67
2022/07/28 00:57:55;;;;;;;;;;;27.00;40.00;;;;;;5003531;28;19948;-69
2022/07/28 01:00:21;;;;;;;;;;;27.00;40.10;;;;;;5001074;28;20051;-69
2022/07/28 01:02:46;;;;;;;;;;;27.00;40.10;;;;;;5002971;28;20016;-68
2022/07/28 01:05:13;;;;;;;;;;;27.00;40.10;;;;;;5000307;28;19968;-67
2022/07/28 01:07:44;;;;;;;;;;;27.00;40.10;;;;;;5007384;28;19913;-68
2022/07/28 01:10:23;;;;;;;;;;;27.00;40.10;;;;;;5002296;28;20369;-67
2022/07/28 01:13:00;;;;;;;;;;;27.00;40.20;;;;;;5001931;28;20282;-67
2022/07/28 01:15:29;;;;;;;;;;;27.00;40.20;;;;;;5001546;28;19924;-68
2022/07/28 01:18:12;;;;;;;;;;;27.00;40.20;;;;;;5000831;28;19968;-64
2022/07/28 01:20:38;;;;;;;;;;;27.00;40.20;;;;;;4998885;28;20480;-69
2022/07/28 01:23:06;;;;;;;;;;;27.00;40.20;;;;;;5001118;28;19928;-69
2022/07/28 01:25:46;;;;;;;;;;;27.00;40.20;;;;;;5000653;28;20024;-65
2022/07/28 01:28:12;;;;;;;;;;;27.00;40.30;;;;;;5000599;28;19987;-70
2022/07/28 01:30:41;;;;;;;;;;;27.00;40.30;;;;;;4999829;28;20544;-66
2022/07/28 01:33:11;;;;;;;;;;;27.00;40.30;;;;;;5013958;28;20388;-66
2022/07/28 01:35:42;;;;;;;;;;;27.00;40.30;;;;;;4997121;28;19921;-69
2022/07/28 01:38:10;;;;;;;;;;;27.00;40.30;;;;;;5002932;28;19917;-67
2022/07/28 01:40:36;;;;;;;;;;;27.00;40.30;;;;;;4998933;28;19913;-68
2022/07/28 01:43:04;;;;;;;;;;;27.00;40.30;;;;;;5000658;28;19924;-66
2022/07/28 01:45:31;;;;;;;;;;;27.00;40.40;;;;;;4999487;28;19917;-67
2022/07/28 01:47:58;;;;;;;;;;;27.00;40.40;;;;;;5004612;28;19917;-68
2022/07/28 01:50:24;;;;;;;;;;;27.00;40.40;;;;;;4997865;28;19925;-67
2022/07/28 01:52:50;;;;;;;;;;;27.00;40.40;;;;;;4999037;28;19917;-70
2022/07/28 01:55:17;;;;;;;;;;;27.00;40.40;;;;;;4997517;28;20341;-66
2022/07/28 01:57:43;;;;;;;;;;;27.00;40.40;;;;;;4999136;28;20557;-69
2022/07/28 02:00:10;;;;;;;;;;;27.00;40.40;;;;;;4997087;28;19923;-65
2022/07/28 02:02:36;;;;;;;;;;;27.00;40.40;;;;;;4998353;28;20337;-69
2022/07/28 02:05:02;;;;;;;;;;;27.00;40.50;;;;;;4998928;28;19913;-66
2022/07/28 02:07:29;;;;;;;;;;;27.00;40.50;;;;;;5005640;28;20628;-66
2022/07/28 02:09:55;;;;;;;;;;;27.00;40.50;;;;;;4996015;28;20047;-67
2022/07/28 02:12:21;;;;;;;;;;;27.00;40.50;;;;;;4998368;28;19949;-65
2022/07/28 02:14:49;;;;;;;;;;;27.00;40.50;;;;;;4998739;28;20011;-65
2022/07/28 02:17:16;;;;;;;;;;;27.00;40.50;;;;;;4997918;28;20940;-68
2022/07/28 02:19:43;;;;;;;;;;;27.00;40.60;;;;;;4997066;28;19920;-70
2022/07/28 02:22:09;;;;;;;;;;;27.00;40.60;;;;;;5000246;28;20059;-64
2022/07/28 02:24:36;;;;;;;;;;;27.00;40.60;;;;;;5001712;28;20364;-65
2022/07/28 02:27:10;;;;;;;;;;;27.00;40.60;;;;;;5000766;28;19987;-69
2022/07/28 02:29:40;;;;;;;;;;;27.00;40.60;;;;;;5003718;28;19997;-66
2022/07/28 02:32:07;;;;;;;;;;;27.00;41.10;;;;;;5001200;28;19933;-65
2022/07/28 02:34:36;;;;;;;;;;;27.00;40.60;;;;;;5001348;28;20019;-65
2022/07/28 02:37:03;;;;;;;;;;;27.00;40.60;;;;;;5001667;28;20000;-69
2022/07/28 02:39:31;;;;;;;;;;;27.00;40.60;;;;;;5002568;28;19937;-63
2022/07/28 02:42:01;;;;;;;;;;;27.00;40.60;;;;;;5000335;28;19976;-69
2022/07/28 02:44:29;;;;;;;;;;;27.00;40.60;;;;;;5006621;28;19960;-70
2022/07/28 02:46:55;;;;;;;;;;;27.00;40.60;;;;;;4999667;28;19925;-67
2022/07/28 02:49:27;;;;;;;;;;;27.00;40.70;;;;;;4999073;28;19927;-67
2022/07/28 02:51:53;;;;;;;;;;;27.00;40.60;;;;;;5002769;28;20378;-66
2022/07/28 02:54:19;;;;;;;;;;;27.00;40.70;;;;;;4999757;28;19933;-67
2022/07/28 02:56:46;;;;;;;;;;;27.00;40.70;;;;;;4997112;28;19921;-68
2022/07/28 02:59:13;;;;;;;;;;;27.00;40.70;;;;;;5000517;28;20297;-65
2022/07/28 03:01:38;;;;;;;;;;;27.00;40.70;;;;;;4998047;28;20075;-67
2022/07/28 03:04:04;;;;;;;;;;;27.00;40.70;;;;;;5000297;28;19935;-66
2022/07/28 03:06:30;;;;;;;;;;;27.00;40.80;;;;;;4995324;28;19928;-66
2022/07/28 03:08:56;;;;;;;;;;;27.00;40.80;;;;;;4999393;28;19993;-69
2022/07/28 03:11:21;;;;;;;;;;;27.00;40.70;;;;;;4997859;28;20122;-70
2022/07/28 03:13:47;;;;;;;;;;;27.00;40.80;;;;;;4997057;28;19940;-70
2022/07/28 03:16:13;;;;;;;;;;;27.00;40.80;;;;;;4995567;28;19928;-69
2022/07/28 03:18:38;;;;;;;;;;;27.00;40.80;;;;;;4997680;28;19925;-66
2022/07/28 03:21:04;;;;;;;;;;;27.00;40.80;;;;;;5001596;28;19917;-69
2022/07/28 03:23:35;;;;;;;;;;;27.00;40.80;;;;;;4998851;28;20021;-65
2022/07/28 03:26:19;;;;;;;;;;;27.00;40.80;;;;;;5001405;28;19918;-69
2022/07/28 03:28:45;;;;;;;;;;;27.00;40.80;;;;;;5002888;28;19956;-71
2022/07/28 03:31:12;;;;;;;;;;;27.00;40.70;;;;;;4997836;28;19929;-69
2022/07/28 03:33:38;;;;;;;;;;;26.90;40.30;;;;;;5002182;28;20060;-70
2022/07/28 03:36:12;;;;;;;;;;;26.80;40.10;;;;;;4998975;28;19917;-69
2022/07/28 03:38:40;;;;;;;;;;;26.80;40.00;;;;;;5002296;28;19914;-71
2022/07/28 03:41:07;;;;;;;;;;;26.70;40.00;;;;;;5004521;28;19945;-68
2022/07/28 03:43:32;;;;;;;;;;;26.60;40.00;;;;;;4999911;28;20011;-69
2022/07/28 03:45:58;;;;;;;;;;;26.50;40.00;;;;;;4997963;28;20297;-70
2022/07/28 03:48:27;;;;;;;;;;;26.40;40.00;;;;;;4998695;28;19921;-69
2022/07/28 03:50:53;;;;;;;;;;;26.40;40.00;;;;;;4995276;28;19977;-70
2022/07/28 03:53:20;;;;;;;;;;;26.30;40.00;;;;;;4998117;28;20024;-66
2022/07/28 03:55:49;;;;;;;;;;;26.20;40.00;;;;;;5003375;28;19976;-67
2022/07/28 03:58:22;;;;;;;;;;;26.20;40.30;;;;;;4999100;28;20587;-67
2022/07/28 04:00:48;;;;;;;;;;;26.00;40.60;;;;;;4996296;28;19932;-70
2022/07/28 04:03:14;;;;;;;;;;;25.90;40.30;;;;;;5000723;28;20504;-68
2022/07/28 04:05:39;;;;;;;;;;;25.90;40.40;;;;;;4994921;28;19921;-68
2022/07/28 04:08:05;;;;;;;;;;;25.80;40.50;;;;;;5003003;28;19917;-69
2022/07/28 04:10:31;;;;;;;;;;;25.70;40.60;;;;;;4999678;28;20020;-65
2022/07/28 04:12:57;;;;;;;;;;;25.70;40.90;;;;;;4999988;28;20038;-70
2022/07/28 04:15:24;;;;;;;;;;;25.60;41.00;;;;;;4998900;28;19921;-67
2022/07/28 04:17:50;;;;;;;;;;;25.60;41.10;;;;;;4997033;28;19947;-70
2022/07/28 04:20:16;;;;;;;;;;;25.60;41.30;;;;;;4996131;28;19952;-71
2022/07/28 04:22:42;;;;;;;;;;;25.50;41.30;;;;;;4997363;28;19928;-67
2022/07/28 04:25:08;;;;;;;;;;;25.50;41.40;;;;;;5002346;28;19917;-68
2022/07/28 04:27:34;;;;;;;;;;;25.40;41.50;;;;;;4997310;28;19928;-67
2022/07/28 04:29:59;;;;;;;;;;;25.40;41.60;;;;;;5001894;28;19921;-68
2022/07/28 04:32:25;;;;;;;;;;;25.40;41.70;;;;;;5002343;28;19922;-65
2022/07/28 04:34:50;;;;;;;;;;;25.30;41.70;;;;;;5005316;28;20345;-65
2022/07/28 04:37:16;;;;;;;;;;;25.20;41.80;;;;;;5000590;28;20250;-70
2022/07/28 04:39:42;;;;;;;;;;;25.20;42.10;;;;;;5013533;28;19921;-69
2022/07/28 04:42:07;;;;;;;;;;;25.20;42.20;;;;;;4999092;28;19917;-67
2022/07/28 04:44:34;;;;;;;;;;;25.10;42.40;;;;;;5002117;28;19921;-70
2022/07/28 04:46:59;;;;;;;;;;;25.10;42.60;;;;;;5000024;28;19917;-64
2022/07/28 04:49:25;;;;;;;;;;;25.00;42.70;;;;;;5000023;28;20487;-68
2022/07/28 04:51:51;;;;;;;;;;;24.90;42.90;;;;;;4998792;28;19918;-69
2022/07/28 04:54:17;;;;;;;;;;;24.90;43.20;;;;;;4999978;28;19921;-65
2022/07/28 04:56:43;;;;;;;;;;;24.80;43.50;;;;;;5006571;28;20372;-67
2022/07/28 04:59:08;;;;;;;;;;;24.80;43.60;;;;;;5000230;28;20016;-69
2022/07/28 05:01:37;;;;;;;;;;;24.70;43.90;;;;;;4998044;28;19921;-70
2022/07/28 05:04:06;;;;;;;;;;;24.60;44.10;;;;;;4999253;28;19975;-71
2022/07/28 05:06:33;;;;;;;;;;;24.60;44.30;;;;;;4996247;28;19928;-67
2022/07/28 05:08:59;;;;;;;;;;;24.60;44.30;;;;;;4995298;28;19928;-65
2022/07/28 05:11:24;;;;;;;;;;;24.60;44.60;;;;;;4994500;28;19921;-67
2022/07/28 05:13:50;;;;;;;;;;;24.50;44.60;;;;;;5001230;28;20136;-67
2022/07/28 05:16:15;;;;;;;;;;;24.50;44.90;;;;;;5000141;28;20318;-66
2022/07/28 05:18:41;;;;;;;;;;;24.50;45.20;;;;;;5002008;28;19925;-66
2022/07/28 05:21:06;;;;;;;;;;;24.60;45.10;;;;;;4999425;28;20334;-67
2022/07/28 05:23:32;;;;;;;;;;;24.60;44.80;;;;;;4999769;28;19937;-67
2022/07/28 05:25:57;;;;;;;;;;;24.70;44.70;;;;;;5000178;28;19917;-66
2022/07/28 05:28:22;;;;;;;;;;;24.70;44.50;;;;;;5001550;28;19924;-70
2022/07/28 05:30:48;;;;;;;;;;;24.80;44.40;;;;;;4998241;28;19926;-69
2022/07/28 05:33:14;;;;;;;;;;;24.80;44.30;;;;;;5000607;28;20005;-68
2022/07/28 05:35:39;;;;;;;;;;;24.80;44.10;;;;;;4997481;28;20635;-68
2022/07/28 05:38:05;;;;;;;;;;;24.90;44.10;;;;;;5000476;28;20019;-67
2022/07/28 05:40:30;;;;;;;;;;;24.90;44.00;;;;;;4999176;28;19924;-70
2022/07/28 05:42:56;;;;;;;;;;;25.00;43.90;;;;;;5000717;28;19944;-68
2022/07/28 05:45:21;;;;;;;;;;;25.10;43.90;;;;;;5001020;28;19969;-68
2022/07/28 05:47:48;;;;;;;;;;;25.10;43.80;;;;;;4999669;28;19917;-69
2022/07/28 05:50:14;;;;;;;;;;;25.10;43.60;;;;;;5000928;28;19967;-67
2022/07/28 05:52:40;;;;;;;;;;;25.10;43.50;;;;;;4998475;28;20498;-68
2022/07/28 05:55:06;;;;;;;;;;;25.20;43.50;;;;;;4998097;28;19961;-67
2022/07/28 05:57:31;;;;;;;;;;;25.20;43.40;;;;;;5002115;28;19918;-71
2022/07/28 05:59:57;;;;;;;;;;;25.30;43.40;;;;;;5001384;28;19921;-68
2022/07/28 06:02:22;;;;;;;;;;;25.20;43.50;;;;;;5007153;28;19928;-67
2022/07/28 06:04:48;;;;;;;;;;;25.30;43.30;;;;;;5001143;28;19976;-68
2022/07/28 06:07:13;;;;;;;;;;;25.40;43.30;;;;;;4999357;28;20637;-64
2022/07/28 06:09:39;;;;;;;;;;;25.40;43.20;;;;;;5000785;28;19921;-66
2022/07/28 06:12:05;;;;;;;;;;;25.40;43.20;;;;;;4998569;28;19983;-68
2022/07/28 06:14:31;;;;;;;;;;;25.40;43.10;;;;;;5013259;28;20276;-69
2022/07/28 06:16:56;;;;;;;;;;;25.50;43.10;;;;;;4997943;28;19918;-68
2022/07/28 06:19:22;;;;;;;;;;;25.50;43.00;;;;;;5011457;28;20527;-68
2022/07/28 06:21:47;;;;;;;;;;;25.60;43.00;;;;;;4996954;28;19972;-69
2022/07/28 06:24:13;;;;;;;;;;;25.60;42.90;;;;;;5001154;28;20365;-68
2022/07/28 06:26:38;;;;;;;;;;;25.60;42.80;;;;;;5000615;28;19924;-66
2022/07/28 06:29:04;;;;;;;;;;;25.60;42.80;;;;;;5010367;28;20336;-66
2022/07/28 06:31:30;;;;;;;;;;;25.70;42.80;;;;;;5005745;28;19925;-68
2022/07/28 06:33:56;;;;;;;;;;;25.70;42.70;;;;;;5000751;28;19921;-65
2022/07/28 06:36:21;;;;;;;;;;;25.70;42.60;;;;;;4999039;28;19967;-67
2022/07/28 06:38:47;;;;;;;;;;;25.70;42.50;;;;;;5004601;28;20337;-69
2022/07/28 06:41:12;;;;;;;;;;;25.80;42.50;;;;;;4996441;28;19921;-67
2022/07/28 06:43:38;;;;;;;;;;;25.80;42.50;;;;;;5000926;28;19917;-70
2022/07/28 06:46:03;;;;;;;;;;;25.80;42.50;;;;;;5006239;28;19913;-68
2022/07/28 06:48:29;;;;;;;;;;;25.90;42.40;;;;;;5001019;28;19918;-69
2022/07/28 06:50:57;;;;;;;;;;;25.90;42.40;;;;;;4999630;28;20016;-69
2022/07/28 06:53:25;;;;;;;;;;;25.90;42.40;;;;;;4999392;28;19921;-67
2022/07/28 06:55:53;;;;;;;;;;;26.00;42.40;;;;;;4998385;28;19993;-65
2022/07/28 06:58:19;;;;;;;;;;;26.00;42.30;;;;;;4999319;28;19930;-68
2022/07/28 07:00:44;;;;;;;;;;;26.00;42.20;;;;;;5009388;28;20329;-68
2022/07/28 07:03:09;;;;;;;;;;;26.10;42.30;;;;;;4999336;28;20064;-67
2022/07/28 07:05:35;;;;;;;;;;;26.10;42.20;;;;;;4999141;28;19921;-66
2022/07/28 07:08:00;;;;;;;;;;;26.10;42.20;;;;;;4999447;28;20468;-68
2022/07/28 07:10:26;;;;;;;;;;;26.10;42.10;;;;;;4998805;28;19944;-71
2022/07/28 07:12:51;;;;;;;;;;;26.10;42.10;;;;;;4999369;28;19983;-68
2022/07/28 07:15:17;;;;;;;;;;;26.10;42.20;;;;;;4998900;28;19917;-67
2022/07/28 07:17:42;;;;;;;;;;;26.20;42.20;;;;;;5000574;28;19921;-64
2022/07/28 07:20:08;;;;;;;;;;;26.20;42.20;;;;;;4997332;28;20436;-68
2022/07/28 07:22:34;;;;;;;;;;;26.20;42.20;;;;;;5000298;28;19925;-68
2022/07/28 07:25:09;;;;;;;;;;;26.20;42.10;;;;;;4997756;28;20028;-63
2022/07/28 07:27:35;;;;;;;;;;;26.20;42.00;;;;;;4998205;28;20448;-65
2022/07/28 07:30:03;;;;;;;;;;;26.20;42.00;;;;;;5000597;28;19921;-69
2022/07/28 07:32:28;;;;;;;;;;;26.30;42.10;;;;;;4998342;28;20396;-68
2022/07/28 07:34:54;;;;;;;;;;;26.30;42.10;;;;;;4999893;28;20012;-68
2022/07/28 07:37:20;;;;;;;;;;;26.30;42.20;;;;;;4998649;28;19917;-67
2022/07/28 07:39:45;;;;;;;;;;;26.30;42.10;;;;;;5000342;28;19917;-69
2022/07/28 07:42:10;;;;;;;;;;;26.30;42.00;;;;;;4999751;28;19919;-67
2022/07/28 07:44:36;;;;;;;;;;;26.40;42.20;;;;;;5001763;28;19918;-70
2022/07/28 07:47:02;;;;;;;;;;;26.40;42.10;;;;;;5008617;28;19987;-68
2022/07/28 07:49:27;;;;;;;;;;;26.40;42.10;;;;;;5000681;28;20004;-70
2022/07/28 07:51:53;;;;;;;;;;;26.50;42.10;;;;;;4998484;28;20283;-69
2022/07/28 07:54:20;;;;;;;;;;;26.40;42.10;;;;;;4999660;28;20366;-68
2022/07/28 07:56:45;;;;;;;;;;;26.40;42.10;;;;;;5008213;28;19917;-70
2022/07/28 07:59:11;;;;;;;;;;;26.50;42.10;;;;;;5003616;28;19986;-69
2022/07/28 08:01:36;;;;;;;;;;;26.50;42.20;;;;;;5011339;28;19921;-65
2022/07/28 08:04:02;;;;;;;;;;;26.50;42.60;;;;;;5003544;28;19917;-72
2022/07/28 08:06:27;;;;;;;;;;;26.50;42.10;;;;;;5002046;28;21152;-68
2022/07/28 08:08:54;;;;;;;;;;;26.60;42.20;;;;;;5003366;28;19924;-67
2022/07/28 08:11:19;;;;;;;;;;;26.60;42.20;;;;;;5002197;28;20067;-68
2022/07/28 08:13:44;;;;;;;;;;;26.60;42.20;;;;;;5001615;28;20043;-65
2022/07/28 08:16:10;;;;;;;;;;;26.60;42.10;;;;;;5001691;28;20102;-70
2022/07/28 08:18:35;;;;;;;;;;;26.60;42.20;;;;;;5009805;28;19917;-69
2022/07/28 08:21:01;;;;;;;;;;;26.60;42.20;;;;;;5003782;28;20420;-69
2022/07/28 08:23:26;;;;;;;;;;;26.70;42.20;;;;;;5011798;28;20083;-68
2022/07/28 08:25:52;;;;;;;;;;;26.60;42.20;;;;;;5001828;28;19921;-69
2022/07/28 08:28:18;;;;;;;;;;;26.70;42.20;;;;;;5004744;28;20270;-69
2022/07/28 08:30:43;;;;;;;;;;;26.70;42.30;;;;;;5002405;28;20345;-66
2022/07/28 08:33:08;;;;;;;;;;;26.70;42.30;;;;;;5002510;28;19913;-67
2022/07/28 08:35:34;;;;;;;;;;;26.70;42.30;;;;;;5002687;28;20254;-67
2022/07/28 08:38:00;;;;;;;;;;;26.70;42.50;;;;;;5002923;28;19940;-69
2022/07/28 08:40:26;;;;;;;;;;;26.70;42.60;;;;;;5000796;28;19991;-69
2022/07/28 08:42:57;;;;;;;;;;;26.70;42.60;;;;;;5004237;28;19924;-71
2022/07/28 08:45:23;;;;;;;;;;;26.80;42.60;;;;;;5002902;28;19928;-68
2022/07/28 08:47:49;;;;;;;;;;;26.80;42.40;;;;;;5010072;28;19913;-69
2022/07/28 08:50:19;;;;;;;;;;;26.80;42.60;;;;;;5003748;28;19922;-69
2022/07/28 08:52:46;;;;;;;;;;;26.80;42.70;;;;;;5001331;28;19921;-73
2022/07/28 08:55:13;;;;;;;;;;;26.80;42.60;;;;;;5000737;28;20369;-69
2022/07/28 08:57:39;;;;;;;;;;;26.80;42.60;;;;;;5002371;28;20022;-69
2022/07/28 09:00:06;;;;;;;;;;;26.80;42.40;;;;;;5003448;28;20005;-67
2022/07/28 09:02:32;;;;;;;;;;;26.90;42.50;;;;;;5003241;28;19921;-68
2022/07/28 09:04:58;;;;;;;;;;;26.90;42.40;;;;;;5004647;28;19917;-77
2022/07/28 09:07:24;;;;;;;;;;;26.90;42.40;;;;;;5001149;28;19921;-65
2022/07/28 09:09:49;;;;;;;;;;;26.90;42.40;;;;;;4999880;28;19917;-68
2022/07/28 09:12:16;;;;;;;;;;;26.90;42.50;;;;;;5000052;28;19928;-69
2022/07/28 09:14:41;;;;;;;;;;;26.90;42.50;;;;;;5000927;28;19913;-64
2022/07/28 09:17:07;;;;;;;;;;;26.90;42.40;;;;;;5001876;28;19917;-71
2022/07/28 09:19:32;;;;;;;;;;;27.00;42.50;;;;;;5004062;28;19921;-71
2022/07/28 09:21:58;;;;;;;;;;;27.00;42.50;;;;;;5004542;28;19925;-69
2022/07/28 09:24:31;;;;;;;;;;;27.00;42.40;;;;;;5009025;28;19963;-70
2022/07/28 09:27:06;;;;;;;;;;;27.00;42.40;;;;;;5003457;28;19913;-66
2022/07/28 09:29:32;;;;;;;;;;;27.00;42.30;;;;;;5004548;28;19992;-64
2022/07/28 09:31:58;;;;;;;;;;;27.10;42.40;;;;;;5007626;28;19932;-70
2022/07/28 09:34:24;;;;;;;;;;;27.10;42.40;;;;;;5005954;28;19914;-66
2022/07/28 09:36:50;;;;;;;;;;;27.10;42.40;;;;;;5006331;28;20249;-69
2022/07/28 09:39:28;;;;;;;;;;;27.10;42.30;;;;;;5005291;28;19924;-68
2022/07/28 09:41:54;;;;;;;;;;;27.10;42.30;;;;;;5010999;28;20354;-67
2022/07/28 09:44:21;;;;;;;;;;;27.10;42.30;;;;;;5007330;28;19952;-68
2022/07/28 09:46:46;;;;;;;;;;;27.10;42.30;;;;;;5007405;28;19917;-67
2022/07/28 09:49:12;;;;;;;;;;;27.10;42.30;;;;;;5007235;28;21195;-69
2022/07/28 09:51:38;;;;;;;;;;;27.10;42.30;;;;;;5003886;28;19921;-67
2022/07/28 09:54:11;;;;;;;;;;;27.10;42.30;;;;;;5005426;28;20015;-64
2022/07/28 09:56:37;;;;;;;;;;;27.20;42.40;;;;;;5006223;28;20394;-67
2022/07/28 09:59:03;;;;;;;;;;;27.20;42.30;;;;;;5006211;28;20070;-66
2022/07/28 10:01:29;;;;;;;;;;;27.20;42.30;;;;;;5020581;28;19947;-72
2022/07/28 10:03:56;;;;;;;;;;;27.20;42.40;;;;;;5007892;28;19989;-67
2022/07/28 10:06:29;;;;;;;;;;;27.20;42.30;;;;;;5008483;28;19942;-68
2022/07/28 10:08:59;;;;;;;;;;;27.20;42.30;;;;;;5003874;28;20042;-64
2022/07/28 10:11:28;;;;;;;;;;;27.20;42.40;;;;;;5005381;28;19917;-65
2022/07/28 10:13:56;;;;;;;;;;;27.20;42.30;;;;;;5003919;28;19921;-69
2022/07/28 10:16:23;;;;;;;;;;;27.30;42.40;;;;;;5004932;28;19918;-67
2022/07/28 10:18:48;;;;;;;;;;;27.30;42.40;;;;;;5006301;28;19913;-64
2022/07/28 10:21:15;;;;;;;;;;;27.30;42.40;;;;;;5002295;28;19925;-66
2022/07/28 10:23:46;;;;;;;;;;;27.30;42.30;;;;;;5006729;28;19979;-66
2022/07/28 10:26:12;;;;;;;;;;;27.30;42.30;;;;;;5001616;28;20051;-67
2022/07/28 10:28:39;;;;;;;;;;;27.30;42.30;;;;;;5001431;28;20345;-70
2022/07/28 10:31:08;;;;;;;;;;;27.40;42.30;;;;;;5002533;28;19921;-66
2022/07/28 10:33:34;;;;;;;;;;;27.40;42.30;;;;;;5003705;28;19917;-69
2022/07/28 10:35:59;;;;;;;;;;;27.40;42.30;;;;;;5005456;28;20519;-68
2022/07/28 10:38:28;;;;;;;;;;;27.40;42.30;;;;;;5003909;28;19945;-69
2022/07/28 10:40:54;;;;;;;;;;;27.40;42.40;;;;;;5003348;28;19922;-69
2022/07/28 10:43:20;;;;;;;;;;;27.40;42.30;;;;;;5003338;28;19968;-69
2022/07/28 10:45:46;;;;;;;;;;;27.40;42.20;;;;;;5003042;28;19917;-65
2022/07/28 10:48:12;;;;;;;;;;;27.40;42.30;;;;;;5015970;28;19921;-65
2022/07/28 10:50:37;;;;;;;;;;;27.40;42.30;;;;;;5004895;28;19928;-68
2022/07/28 10:53:05;;;;;;;;;;;27.40;42.30;;;;;;5004547;28;20668;-70
2022/07/28 10:55:40;;;;;;;;;;;27.40;42.30;;;;;;5020231;28;19999;-68
2022/07/28 10:58:18;;;;;;;;;;;27.50;42.30;;;;;;5001949;28;19918;-72
2022/07/28 11:00:47;;;;;;;;;;;27.50;42.30;;;;;;5006325;28;20048;-72
2022/07/28 11:03:35;;;;;;;;;;;27.50;42.20;;;;;;5016913;28;20377;-69
2022/07/28 11:06:19;;;;;;;;;;;27.50;42.20;;;;;;5007679;28;20032;-69
2022/07/28 11:08:45;;;;;;;;;;;27.50;42.20;;;;;;5012165;28;19917;-71
2022/07/28 11:11:10;;;;;;;;;;;27.50;42.20;;;;;;5001407;28;19924;-65
2022/07/28 11:13:36;;;;;;;;;;;27.50;42.20;;;;;;5007076;28;19913;-64
2022/07/28 11:16:18;;;;;;;;;;;27.60;42.30;;;;;;5005685;28;19921;-70
2022/07/28 11:19:02;;;;;;;;;;;27.50;42.20;;;;;;5005046;28;20266;-70
2022/07/28 11:21:27;;;;;;;;;;;27.50;42.70;;;;;;5010117;28;19913;-68
2022/07/28 11:23:56;;;;;;;;;;;27.50;42.20;;;;;;5005555;28;20051;-69
2022/07/28 11:26:26;;;;;;;;;;;27.60;42.20;;;;;;5003907;28;19917;-66
2022/07/28 11:29:11;;;;;;;;;;;27.60;42.20;;;;;;5018075;28;20076;-65
2022/07/28 11:31:45;;;;;;;;;;;27.60;42.20;;;;;;4999975;28;20508;-65
2022/07/28 11:34:18;;;;;;;;;;;27.60;42.20;;;;;;4998578;28;19913;-67
2022/07/28 11:37:02;;;;;;;;;;;27.60;42.20;;;;;;5002067;28;20447;-64
2022/07/28 11:39:28;;;;;;;;;;;27.60;42.20;;;;;;5004685;28;19997;-67
2022/07/28 11:41:53;;;;;;;;;;;27.60;42.20;;;;;;5006348;28;20011;-71
2022/07/28 11:44:29;;;;;;;;;;;27.60;42.20;;;;;;5008178;28;20361;-66
2022/07/28 11:47:13;;;;;;;;;;;27.60;42.20;;;;;;5006375;28;19960;-66
2022/07/28 11:49:38;;;;;;;;;;;27.60;42.20;;;;;;5006599;28;19953;-70
2022/07/28 11:52:16;;;;;;;;;;;27.60;42.20;;;;;;5006825;28;20011;-67
2022/07/28 11:54:46;;;;;;;;;;;27.60;42.20;;;;;;5005617;28;19925;-70
2022/07/28 11:57:12;;;;;;;;;;;27.60;42.20;;;;;;5006595;28;19917;-69
2022/07/28 11:59:41;;;;;;;;;;;27.70;42.30;;;;;;5004874;28;19940;-65
2022/07/28 12:02:06;;;;;;;;;;;27.70;42.30;;;;;;5007322;28;19925;-65
2022/07/28 12:04:32;;;;;;;;;;;27.70;42.40;;;;;;5005114;28;20382;-66
2022/07/28 12:06:57;;;;;;;;;;;27.70;42.40;;;;;;5001596;28;19924;-71
2022/07/28 12:09:27;;;;;;;;;;;27.70;42.30;;;;;;5005799;28;20011;-64
2022/07/28 12:11:54;;;;;;;;;;;27.70;42.40;;;;;;5003174;28;19930;-65
2022/07/28 12:14:27;;;;;;;;;;;27.70;42.50;;;;;;5009013;28;20052;-71
2022/07/28 12:16:53;;;;;;;;;;;27.70;42.40;;;;;;5009272;28;19928;-69
2022/07/28 12:19:19;;;;;;;;;;;27.70;42.40;;;;;;5006062;28;19921;-68
2022/07/28 12:21:46;;;;;;;;;;;27.70;42.40;;;;;;5004838;28;19917;-69
2022/07/28 12:24:32;;;;;;;;;;;27.80;42.50;;;;;;4999648;28;19931;-68
2022/07/28 12:26:59;;;;;;;;;;;27.80;42.50;;;;;;5001735;28;19940;-68
2022/07/28 12:29:30;;;;;;;;;;;27.80;42.50;;;;;;5007732;28;19917;-70
2022/07/28 12:31:57;;;;;;;;;;;27.80;42.50;;;;;;5007481;28;20334;-70
2022/07/28 12:34:23;;;;;;;;;;;27.80;42.50;;;;;;4998723;28;19925;-71
2022/07/28 12:36:49;;;;;;;;;;;27.80;42.50;;;;;;5000907;28;19918;-66
2022/07/28 12:39:16;;;;;;;;;;;27.80;42.50;;;;;;5004411;28;20384;-68
2022/07/28 12:41:42;;;;;;;;;;;27.80;43.00;;;;;;5006338;28;19971;-65
2022/07/28 12:44:07;;;;;;;;;;;27.80;42.50;;;;;;5001820;28;19925;-70
2022/07/28 12:46:33;;;;;;;;;;;27.80;42.60;;;;;;4999625;28;19921;-70
2022/07/28 12:48:59;;;;;;;;;;;27.80;42.50;;;;;;5018049;28;19949;-67
2022/07/28 12:51:44;;;;;;;;;;;27.80;42.60;;;;;;5007129;28;19943;-68
2022/07/28 12:54:11;;;;;;;;;;;27.90;42.70;;;;;;5005011;28;19918;-66
2022/07/28 12:56:52;;;;;;;;;;;27.90;42.70;;;;;;5004734;28;19921;-68
2022/07/28 12:59:18;;;;;;;;;;;27.90;42.70;;;;;;5021138;28;19923;-68
2022/07/28 13:01:50;;;;;;;;;;;27.90;42.70;;;;;;5001395;28;19917;-72
2022/07/28 13:04:28;;;;;;;;;;;27.90;42.80;;;;;;5004601;28;19968;-69
2022/07/28 13:06:55;;;;;;;;;;;27.90;42.80;;;;;;5013088;28;20389;-66
2022/07/28 13:09:21;;;;;;;;;;;27.90;42.80;;;;;;5003499;28;20008;-65
2022/07/28 13:11:47;;;;;;;;;;;27.90;42.80;;;;;;5003990;28;20348;-72
2022/07/28 13:14:12;;;;;;;;;;;27.90;42.80;;;;;;5002404;28;19964;-71
2022/07/28 13:16:38;;;;;;;;;;;27.90;42.80;;;;;;5012356;28;20619;-66
2022/07/28 13:19:04;;;;;;;;;;;27.90;42.80;;;;;;5008369;28;19971;-66
2022/07/28 13:21:42;;;;;;;;;;;27.90;42.80;;;;;;5003950;28;20428;-70
2022/07/28 13:24:09;;;;;;;;;;;28.00;42.90;;;;;;5006224;28;19928;-73
2022/07/28 13:26:37;;;;;;;;;;;28.00;42.90;;;;;;4999620;28;19921;-75
2022/07/28 13:29:04;;;;;;;;;;;28.00;43.00;;;;;;5018489;28;20026;-66
2022/07/28 13:31:34;;;;;;;;;;;28.00;43.00;;;;;;5016859;28;20005;-69
2022/07/28 13:34:04;;;;;;;;;;;28.00;42.90;;;;;;4999718;28;20195;-67
2022/07/28 13:36:29;;;;;;;;;;;28.00;43.00;;;;;;5003582;28;19960;-66
2022/07/28 13:38:55;;;;;;;;;;;28.00;42.90;;;;;;5008799;28;20003;-70
2022/07/28 13:41:20;;;;;;;;;;;28.00;43.00;;;;;;5004642;28;20354;-71
2022/07/28 13:43:47;;;;;;;;;;;28.00;43.00;;;;;;5001708;28;19917;-66
2022/07/28 13:46:17;;;;;;;;;;;28.00;43.00;;;;;;5012879;28;20240;-69
2022/07/28 13:48:43;;;;;;;;;;;28.00;43.00;;;;;;5001273;28;19917;-65
2022/07/28 13:51:12;;;;;;;;;;;28.00;43.10;;;;;;5006333;28;19917;-68
2022/07/28 13:53:39;;;;;;;;;;;28.00;43.10;;;;;;4998952;28;19983;-69
2022/07/28 13:56:05;;;;;;;;;;;28.10;43.30;;;;;;4997767;28;19917;-69
2022/07/28 13:58:31;;;;;;;;;;;28.10;43.20;;;;;;4998388;28;19917;-68
2022/07/28 14:00:56;;;;;;;;;;;28.10;43.10;;;;;;4999128;28;20274;-67
2022/07/28 14:03:22;;;;;;;;;;;28.10;43.20;;;;;;4999511;28;20358;-69
2022/07/28 14:05:48;;;;;;;;;;;28.10;43.20;;;;;;4999957;28;20216;-66
2022/07/28 14:08:19;;;;;;;;;;;28.10;43.20;;;;;;5001480;28;19921;-72
2022/07/28 14:10:46;;;;;;;;;;;28.10;43.10;;;;;;5004222;28;19921;-66
2022/07/28 14:13:11;;;;;;;;;;;28.20;43.20;;;;;;5004081;28;19929;-68
2022/07/28 14:15:37;;;;;;;;;;;28.10;43.20;;;;;;5001071;28;19918;-67
2022/07/28 14:18:02;;;;;;;;;;;28.20;43.30;;;;;;4998825;28;19967;-70
2022/07/28 14:20:28;;;;;;;;;;;28.20;43.30;;;;;;4995844;28;19952;-67